Time;durP1;ratioP1;P1;durP2;ratioP2;P2;SDS_P1;SDS_P2;PMS_P1;PMS_P2;Temp;Humidity;BMP_temperature;BMP_pressure;BME280_temperature;BME280_humidity;BME280_pressure;Samples;Min_cycle;Max_cycle;Signal;HPM_P1;HPM_P2
2021/07/15 00:01:25;;;;;;;11.27;7.95;;;;;;;27.03;50.05;100441.13;4994235;28;20050;-68
2021/07/15 00:03:54;;;;;;;14.73;7.93;;;;;;;26.87;51.03;100430.25;4995058;28;20096;-68
2021/07/15 00:06:23;;;;;;;11.07;7.70;;;;;;;26.90;50.80;100433.69;4994824;28;20042;-68
2021/07/15 00:08:53;;;;;;;10.27;7.80;;;;;;;26.89;50.80;100431.94;4992719;28;20050;-68
2021/07/15 00:11:23;;;;;;;11.85;6.80;;;;;;;26.86;50.54;100423.94;4992809;28;20539;-68
2021/07/15 00:13:51;;;;;;;10.98;7.40;;;;;;;26.89;50.87;100425.66;4994770;28;20073;-68
2021/07/15 00:16:20;;;;;;;12.55;7.47;;;;;;;26.88;50.48;100421.16;4994020;28;20050;-68
2021/07/15 00:18:51;;;;;;;11.70;7.60;;;;;;;26.70;51.25;100430.34;4993628;28;20571;-68
2021/07/15 00:21:24;;;;;;;15.18;7.82;;;;;;;26.74;51.54;100421.94;4994730;28;20050;-68
2021/07/15 00:23:56;;;;;;;9.70;7.25;;;;;;;26.85;50.74;100416.78;4994200;28;20054;-68
2021/07/15 00:26:26;;;;;;;11.50;7.43;;;;;;;26.86;50.86;100418.53;4994684;28;20043;-69
2021/07/15 00:28:54;;;;;;;12.35;8.05;;;;;;;26.88;50.98;100424.75;4993957;28;20038;-68
2021/07/15 00:31:21;;;;;;;10.82;7.70;;;;;;;26.87;51.34;100419.41;4993881;28;20045;-68
2021/07/15 00:33:49;;;;;;;15.20;7.97;;;;;;;26.86;51.01;100418.53;4988818;28;20149;-68
2021/07/15 00:36:18;;;;;;;11.68;7.78;;;;;;;26.86;50.74;100418.53;4974331;28;20039;-68
2021/07/15 00:38:46;;;;;;;12.73;7.78;;;;;;;26.82;51.04;100425.09;4973314;28;20035;-68
2021/07/15 00:41:18;;;;;;;10.98;7.78;;;;;;;26.84;51.15;100425.88;4974211;28;20051;-68
2021/07/15 00:43:51;;;;;;;12.32;7.90;;;;;;;26.86;51.12;100423.94;4974387;28;20043;-68
2021/07/15 00:46:20;;;;;;;13.77;7.78;;;;;;;26.76;51.21;100414.59;4974640;28;20148;-68
2021/07/15 00:48:48;;;;;;;11.90;8.35;;;;;;;26.77;51.32;100410.06;4973428;28;20057;-68
2021/07/15 00:51:17;;;;;;;12.82;7.78;;;;;;;26.74;51.77;100424.66;4974292;28;20043;-68
2021/07/15 00:53:46;;;;;;;10.90;7.35;;;;;;;26.74;51.59;100416.53;4974399;28;20102;-68
2021/07/15 00:56:16;;;;;;;11.43;7.60;;;;;;;26.78;51.19;100409.97;4973677;28;20046;-68
2021/07/15 00:58:44;;;;;;;13.43;7.68;;;;;;;26.83;51.48;100412.41;4972289;28;20046;-68
2021/07/15 01:01:12;;;;;;;12.93;7.80;;;;;;;26.84;51.20;100409.63;4974208;28;20042;-68
2021/07/15 01:03:41;;;;;;;15.68;7.88;;;;;;;26.81;51.63;100408.91;4972965;28;20043;-68
2021/07/15 01:06:10;;;;;;;13.18;8.45;;;;;;;26.70;51.93;100408.66;4972929;28;20035;-68
2021/07/15 01:08:38;;;;;;;16.30;7.95;;;;;;;26.78;51.42;100401.81;4973989;28;20039;-68
2021/07/15 01:11:15;;;;;;;11.68;7.70;;;;;;;26.80;51.93;100397.19;4973667;28;20138;-68
2021/07/15 01:13:49;;;;;;;14.40;7.38;;;;;;;26.77;51.76;100410.94;4973709;28;20130;-68
2021/07/15 01:16:29;;;;;;;9.52;7.68;;;;;;;26.79;52.13;100402.69;4973721;28;20358;-68
2021/07/15 01:19:06;;;;;;;10.02;7.30;;;;;;;26.79;52.08;100403.59;4974018;28;20039;-68
2021/07/15 01:22:03;;;;;;;10.80;7.40;;;;;;;26.77;51.95;100401.94;4973993;28;20035;-68
2021/07/15 01:25:07;;;;;;;11.93;7.85;;;;;;;26.78;51.48;100401.81;4972621;28;20058;-68
2021/07/15 01:28:07;;;;;;;12.97;8.47;;;;;;;26.75;51.65;100407.44;4973221;28;20066;-68
2021/07/15 01:30:42;;;;;;;11.93;7.50;;;;;;;26.75;52.30;100402.03;4973730;28;20508;-68
2021/07/15 01:33:16;;;;;;;11.52;7.20;;;;;;;26.80;51.72;100399.91;4973039;28;20042;-68
2021/07/15 01:35:52;;;;;;;12.75;7.65;;;;;;;26.78;51.76;100407.25;4973513;28;20042;-69
2021/07/15 01:38:24;;;;;;;14.48;8.07;;;;;;;26.76;51.48;100408.31;4973700;28;20051;-68
2021/07/15 01:41:06;;;;;;;14.30;7.57;;;;;;;26.75;52.09;100406.56;4973650;28;20042;-68
2021/07/15 01:43:37;;;;;;;15.32;7.55;;;;;;;26.73;52.09;100405.75;4972475;28;20066;-68
2021/07/15 01:46:07;;;;;;;13.77;7.78;;;;;;;26.72;51.68;100396.75;4973478;28;20038;-68
2021/07/15 01:48:35;;;;;;;11.85;8.18;;;;;;;26.72;52.01;100399.47;4972784;28;20043;-68
2021/07/15 01:51:05;;;;;;;11.43;7.65;;;;;;;26.72;51.79;100412.13;4973478;28;20042;-68
2021/07/15 01:53:36;;;;;;;10.45;7.25;;;;;;;26.73;52.15;100409.34;4972232;28;20454;-68
2021/07/15 01:56:06;;;;;;;14.88;8.82;;;;;;;26.73;52.12;100406.63;4973147;28;20035;-68
2021/07/15 01:58:36;;;;;;;11.65;7.50;;;;;;;26.73;52.41;100406.63;4973830;28;20043;-68
2021/07/15 02:01:08;;;;;;;13.00;7.65;;;;;;;26.75;52.64;100402.03;4972839;28;20043;-68
2021/07/15 02:03:40;;;;;;;13.05;7.40;;;;;;;26.75;52.31;100407.44;4972558;28;20046;-68
2021/07/15 02:06:09;;;;;;;10.70;7.72;;;;;;;26.75;52.94;100403.84;4972641;28;20500;-68
2021/07/15 02:08:38;;;;;;;11.95;7.68;;;;;;;26.72;52.59;100399.47;4972823;28;20038;-68
2021/07/15 02:11:07;;;;;;;11.95;7.72;;;;;;;26.73;52.79;100401.22;4972240;28;20117;-68
2021/07/15 02:13:35;;;;;;;11.30;7.55;;;;;;;26.67;53.05;100395.28;4972764;28;20042;-68
2021/07/15 02:16:06;;;;;;;13.52;8.05;;;;;;;26.65;53.10;100402.63;4971469;28;20117;-68
2021/07/15 02:18:37;;;;;;;10.75;7.53;;;;;;;26.68;53.72;100400.63;4972167;28;20071;-68
2021/07/15 02:21:06;;;;;;;16.42;7.18;;;;;;;26.72;53.49;100396.75;4970983;28;20046;-68
2021/07/15 02:23:35;;;;;;;13.30;7.88;;;;;;;26.73;53.35;100393.09;4972307;28;20077;-68
2021/07/15 02:26:03;;;;;;;16.40;7.75;;;;;;;26.80;53.33;100396.31;4972607;28;20090;-68
2021/07/15 02:28:31;;;;;;;11.88;6.82;;;;;;;26.78;53.37;100399.13;4972136;28;20043;-68
2021/07/15 02:31:05;;;;;;;13.75;7.35;;;;;;;26.78;53.71;100404.53;4972243;28;20041;-68
2021/07/15 02:33:33;;;;;;;10.98;7.25;;;;;;;26.76;53.49;100406.47;4971803;28;20677;-68
2021/07/15 02:36:07;;;;;;;10.50;7.40;;;;;;;26.74;54.25;100405.69;4972238;28;20112;-68
2021/07/15 02:38:35;;;;;;;12.68;8.10;;;;;;;26.72;54.09;100398.59;4972419;28;20066;-68
2021/07/15 02:41:05;;;;;;;13.95;7.43;;;;;;;26.72;53.60;100402.19;4971870;28;20050;-68
2021/07/15 02:43:34;;;;;;;16.63;8.80;;;;;;;26.70;53.85;100401.41;4971402;28;20113;-68
2021/07/15 02:46:02;;;;;;;26.05;8.32;;;;;;;26.67;54.25;100407.00;4971943;28;20039;-68
2021/07/15 02:48:30;;;;;;;19.60;8.68;;;;;;;26.69;54.57;100405.09;4972945;28;20102;-68
2021/07/15 02:51:00;;;;;;;11.73;7.43;;;;;;;26.67;54.43;100401.56;4971500;28;20042;-68
2021/07/15 02:53:30;;;;;;;12.07;7.47;;;;;;;26.67;54.84;100406.13;4972333;28;20039;-68
2021/07/15 02:56:08;;;;;;;18.75;7.88;;;;;;;26.67;54.92;100398.88;4972094;28;20043;-68
2021/07/15 02:58:43;;;;;;;13.85;8.25;;;;;;;26.66;54.56;100404.34;4959194;28;20039;-68
2021/07/15 03:01:19;;;;;;;13.25;8.30;;;;;;;26.65;55.21;100387.22;4971789;28;20053;-68
2021/07/15 03:03:57;;;;;;;14.20;7.70;;;;;;;26.66;55.47;100409.78;4971823;28;20049;-68
2021/07/15 03:06:33;;;;;;;13.65;8.52;;;;;;;26.68;55.43;100399.75;4971727;28;20443;-68
2021/07/15 03:09:05;;;;;;;13.48;8.40;;;;;;;26.67;55.33;100412.41;4970932;28;20047;-67
2021/07/15 03:11:39;;;;;;;12.20;8.45;;;;;;;26.65;55.58;100406.19;4971170;28;20043;-67
2021/07/15 03:14:07;;;;;;;;;;;;;;;26.64;55.70;100412.59;4971863;28;20113;-67
2021/07/15 03:16:39;;;;;;;13.73;7.72;;;;;;;26.66;56.01;100405.25;4970783;28;20017;-68
2021/07/15 03:19:12;;;;;;;13.90;8.45;;;;;;;26.66;55.63;100405.25;4971377;28;20049;-68
2021/07/15 03:21:43;;;;;;;14.35;8.80;;;;;;;26.68;56.08;100408.75;4970620;28;20066;-68
2021/07/15 03:24:17;;;;;;;13.75;8.73;;;;;;;26.73;55.60;100409.34;4972035;28;20043;-68
2021/07/15 03:26:48;;;;;;;16.42;8.45;;;;;;;26.76;55.99;100405.59;4970179;28;20506;-68
2021/07/15 03:29:16;;;;;;;16.40;8.32;;;;;;;26.75;55.88;100409.28;4971031;28;20420;-68
2021/07/15 03:31:44;;;;;;;11.80;8.13;;;;;;;26.79;55.95;100398.16;4970283;28;20493;-68
2021/07/15 03:34:12;;;;;;;15.18;7.82;;;;;;;26.88;55.82;100403.06;4966304;28;20091;-68
2021/07/15 03:36:48;;;;;;;11.10;7.97;;;;;;;26.96;55.66;100397.25;4952415;29;20043;-68
2021/07/15 03:39:19;;;;;;;12.27;7.70;;;;;;;27.09;55.73;100410.94;4951506;29;20050;-68
2021/07/15 03:41:50;;;;;;;14.45;7.57;;;;;;;27.17;55.35;100405.97;4956336;28;20444;-68
2021/07/15 03:44:19;;;;;;;13.43;8.00;;;;;;;27.25;55.23;100398.22;4965706;28;20043;-68
2021/07/15 03:46:48;;;;;;;14.32;8.15;;;;;;;27.37;55.13;100397.53;4968367;28;20505;-69
2021/07/15 03:49:19;;;;;;;11.57;7.55;;;;;;;27.47;55.33;100398.72;4963783;28;20039;-68
2021/07/15 03:51:50;;;;;;;17.48;7.65;;;;;;;27.57;54.70;100396.38;4956161;28;20103;-68
2021/07/15 03:54:21;;;;;;;10.55;7.00;;;;;;;27.72;54.26;100389.97;4966764;28;20039;-68
2021/07/15 03:56:51;;;;;;;11.75;7.82;;;;;;;27.84;53.97;100402.78;4952878;28;20478;-68
2021/07/15 03:59:21;;;;;;;12.13;7.20;;;;;;;27.97;53.73;100392.03;4951666;29;20046;-68
2021/07/15 04:01:58;;;;;;;11.13;7.20;;;;;;;28.13;53.42;100398.28;4965814;28;20031;-68
2021/07/15 04:04:30;;;;;;;11.52;7.22;;;;;;;28.25;53.23;100393.94;4970815;28;20125;-68
2021/07/15 04:07:01;;;;;;;10.07;6.90;;;;;;;28.36;52.68;100399.53;4953352;28;20050;-68
2021/07/15 04:09:35;;;;;;;11.98;6.97;;;;;;;28.50;52.63;100408.56;4940001;28;20039;-68
2021/07/15 04:12:02;;;;;;;;;;;;;;;28.58;52.33;100397.22;4967921;28;20047;-68
2021/07/15 04:14:49;;;;;;;14.70;7.10;;;;;;;28.76;51.85;100406.03;4971431;28;19929;-68
2021/07/15 04:17:18;;;;;;;10.07;7.15;;;;;;;28.89;51.65;100412.41;4963107;28;20050;-69
2021/07/15 04:19:48;;;;;;;11.45;6.63;;;;;;;29.03;51.26;100406.94;4951970;28;20051;-68
2021/07/15 04:22:16;;;;;;;11.98;6.45;;;;;;;29.20;50.99;100409.41;4965466;28;20027;-68
2021/07/15 04:24:47;;;;;;;13.82;6.70;;;;;;;29.36;50.76;100411.97;4971891;28;20049;-68
2021/07/15 04:27:20;;;;;;;10.75;6.22;;;;;;;29.55;50.21;100408.88;4966746;28;20155;-69
2021/07/15 04:29:48;;;;;;;8.80;6.15;;;;;;;29.66;50.16;100411.75;4952658;28;20050;-68
2021/07/15 04:32:26;;;;;;;13.35;7.47;;;;;;;29.82;49.55;100414.25;4971118;28;20093;-68
2021/07/15 04:34:55;;;;;;;14.10;7.10;;;;;;;29.94;49.10;100408.84;4971128;28;20054;-69
2021/07/15 04:37:25;;;;;;;10.85;6.63;;;;;;;30.13;48.91;100413.88;4961665;28;20493;-68
2021/07/15 04:39:56;;;;;;;15.48;6.60;;;;;;;30.27;48.11;100407.44;4951959;29;20039;-69
2021/07/15 04:42:25;;;;;;;12.50;6.38;;;;;;;30.47;48.03;100417.78;4956750;28;20047;-69
2021/07/15 04:44:54;;;;;;;10.50;6.07;;;;;;;30.71;47.19;100423.34;4943691;29;20408;-68
2021/07/15 04:47:24;;;;;;;10.07;6.47;;;;;;;30.85;46.78;100415.00;4944946;28;20409;-68
2021/07/15 04:49:52;;;;;;;14.15;6.28;;;;;;;30.99;46.27;100414.81;4955376;29;20048;-69
2021/07/15 04:52:22;;;;;;;10.30;6.65;;;;;;;31.21;45.80;100417.72;4955436;29;20043;-69
2021/07/15 04:54:51;;;;;;;10.18;5.78;;;;;;;31.37;45.64;100422.91;4932935;29;20051;-69
2021/07/15 04:57:24;;;;;;;11.93;6.47;;;;;;;31.53;44.88;100409.81;4960212;28;20050;-68
2021/07/15 04:59:56;;;;;;;10.60;6.60;;;;;;;31.59;44.41;100411.19;4952865;28;20082;-68
2021/07/15 05:02:26;;;;;;;12.77;6.00;;;;;;;31.82;44.55;100414.91;4945312;28;20095;-68
2021/07/15 05:04:53;;;;;;;11.77;6.30;;;;;;;32.02;43.88;100412.34;4946658;28;20047;-69
2021/07/15 05:07:21;;;;;;;12.02;5.85;;;;;;;32.28;43.64;100426.69;4953303;28;20272;-69
2021/07/15 05:09:49;;;;;;;9.00;6.18;;;;;;;32.56;42.79;100419.00;4952903;28;20505;-68
2021/07/15 05:12:17;;;;;;;10.43;5.65;;;;;;;32.75;42.74;100416.53;4953554;28;20087;-68
2021/07/15 05:14:47;;;;;;;12.95;6.35;;;;;;;32.81;42.13;100419.63;4953508;28;20055;-68
2021/07/15 05:17:14;;;;;;;12.20;6.07;;;;;;;32.88;42.10;100417.25;4953893;28;20509;-68
2021/07/15 05:19:43;;;;;;;10.07;6.20;;;;;;;33.02;41.62;100413.34;4952687;28;20047;-69
2021/07/15 05:22:12;;;;;;;9.55;5.68;;;;;;;33.18;41.08;100416.53;4952307;28;20063;-69
2021/07/15 05:24:40;;;;;;;10.73;6.07;;;;;;;33.43;40.69;100410.75;4953467;28;20039;-69
2021/07/15 05:27:09;;;;;;;12.50;5.93;;;;;;;33.62;40.50;100416.41;4953621;28;20039;-69
2021/07/15 05:29:37;;;;;;;10.63;5.78;;;;;;;33.80;40.04;100413.13;4953668;28;20035;-66
2021/07/15 05:32:07;;;;;;;12.27;5.80;;;;;;;33.92;39.51;100418.41;4953248;28;20130;-65
2021/07/15 05:34:39;;;;;;;11.30;5.72;;;;;;;34.14;39.10;100421.97;4976488;28;20042;-68
2021/07/15 05:37:08;;;;;;;9.80;5.53;;;;;;;34.24;39.01;100418.31;4961449;28;20059;-68
2021/07/15 05:39:35;;;;;;;8.48;5.78;;;;;;;34.37;39.28;100413.50;4976654;28;20038;-68
2021/07/15 05:42:05;;;;;;;11.63;6.03;;;;;;;34.45;39.02;100428.38;4981826;28;20580;-68
2021/07/15 05:44:32;;;;;;;10.65;5.80;;;;;;;34.61;38.82;100428.72;4975693;28;20059;-68
2021/07/15 05:47:00;;;;;;;14.20;6.10;;;;;;;34.71;38.92;100427.81;4972799;28;20046;-69
2021/07/15 09:34:32;;;;;;;8.55;4.95;;;;;;;38.05;31.12;100454.75;4937174;28;20035;-66
2021/07/15 09:37:10;;;;;;;9.82;5.13;;;;;;;37.92;31.12;100447.88;4949249;29;20099;-68
2021/07/15 09:39:46;;;;;;;8.45;5.07;;;;;;;37.86;31.43;100443.88;4952339;29;20039;-66
2021/07/15 09:42:18;;;;;;;10.40;5.65;;;;;;;37.63;31.63;100450.88;4954281;29;20039;-67
2021/07/15 09:44:49;;;;;;;10.98;4.88;;;;;;;37.46;31.91;100458.97;4954247;29;20047;-66
2021/07/15 09:47:35;;;;;;;11.05;4.97;;;;;;;37.82;31.77;100454.34;4952773;29;20532;-66
2021/07/15 09:50:27;;;;;;;11.05;5.13;;;;;;;37.78;31.48;100452.94;4954022;29;20056;-66
2021/07/15 09:53:15;;;;;;;10.48;5.30;;;;;;;37.80;31.72;100453.66;4947466;28;21552;-66
2021/07/15 09:55:42;;;;;;;9.82;5.07;;;;;;;37.74;31.84;100459.81;4966394;28;20444;-66
2021/07/15 09:58:12;;;;;;;10.82;5.60;;;;;;;37.79;32.03;100462.06;4953715;29;20039;-66
2021/07/15 10:00:42;;;;;;;9.52;5.30;;;;;;;37.73;32.10;100454.44;4953412;29;20047;-66
2021/07/15 10:03:12;;;;;;;10.93;5.70;;;;;;;37.71;32.21;100449.06;4953508;29;20043;-66
2021/07/15 10:05:51;;;;;;;12.27;5.50;;;;;;;37.72;32.10;100428.75;4953038;29;20067;-69
2021/07/15 10:08:30;;;;;;;11.05;4.88;;;;;;;37.49;32.19;100453.13;4952622;29;20035;-65
2021/07/15 10:11:19;;;;;;;12.45;5.97;;;;;;;37.31;32.32;100432.09;4952235;29;20051;-65
2021/07/15 10:14:00;;;;;;;12.60;5.45;;;;;;;37.13;32.34;100432.09;4949692;29;20043;-66
2021/07/15 10:16:30;;;;;;;15.63;6.70;;;;;;;36.99;32.97;100447.22;4953019;29;20047;-66
2021/07/15 10:18:59;;;;;;;8.90;5.47;;;;;;;36.92;33.40;100447.97;4953136;29;20040;-66
2021/07/15 10:21:30;;;;;;;10.10;5.82;;;;;;;36.92;33.43;100445.22;4935860;29;20050;-66
2021/07/15 10:23:58;;;;;;;11.20;5.68;;;;;;;36.75;33.38;100441.41;4953325;29;20039;-66
2021/07/15 10:26:28;;;;;;;11.15;5.85;;;;;;;36.70;33.73;100432.72;4953001;29;20103;-66
2021/07/15 10:28:56;;;;;;;9.48;5.32;;;;;;;36.64;33.90;100436.06;4952743;29;20714;-66
2021/07/15 10:31:27;;;;;;;13.45;5.38;;;;;;;36.50;34.30;100425.53;4951782;29;20651;-66
2021/07/15 10:33:55;;;;;;;12.27;6.63;;;;;;;36.41;34.87;100430.09;4953239;29;20115;-66
2021/07/15 10:36:25;;;;;;;13.00;6.07;;;;;;;36.29;35.03;100432.16;4943612;29;20119;-66
2021/07/15 10:38:59;;;;;;;11.18;5.65;;;;;;;36.01;34.89;100429.44;4920261;29;20040;-66
2021/07/15 10:41:27;;;;;;;16.02;5.90;;;;;;;35.90;35.25;100431.34;4932810;29;20040;-66
2021/07/15 10:43:55;;;;;;;17.83;6.20;;;;;;;35.99;35.01;100414.94;4933880;29;20520;-66
2021/07/15 10:46:24;;;;;;;10.20;6.10;;;;;;;35.91;35.72;100423.94;4932373;29;20051;-65
2021/07/15 10:48:52;;;;;;;12.65;6.50;;;;;;;35.94;35.25;100429.16;4933427;29;20047;-65
2021/07/15 10:51:20;;;;;;;12.35;6.63;;;;;;;35.92;35.31;100422.91;4943893;29;20131;-66
2021/07/15 10:53:49;;;;;;;11.55;6.00;;;;;;;35.99;35.26;100421.31;4948309;29;20051;-67
2021/07/15 10:56:23;;;;;;;16.08;5.72;;;;;;;36.21;35.03;100425.66;4932638;29;20039;-67
2021/07/15 10:58:52;;;;;;;9.13;6.50;;;;;;;36.38;34.94;100415.75;4933490;29;20429;-68
2021/07/15 11:01:52;;;;;;;13.15;5.80;;;;;;;36.52;34.70;100421.63;4932902;29;20046;-66
2021/07/15 11:04:22;;;;;;;15.25;6.47;;;;;;;36.63;34.90;100415.91;4948351;29;20127;-66
2021/07/15 11:06:51;;;;;;;11.75;6.10;;;;;;;36.76;35.00;100401.84;4932910;29;20031;-65
2021/07/15 11:09:31;;;;;;;12.63;5.95;;;;;;;36.84;34.55;100399.19;4934247;29;20128;-65
2021/07/15 11:12:02;;;;;;;13.98;6.15;;;;;;;36.85;34.86;100408.31;4938801;29;20055;-67
2021/07/15 11:14:39;;;;;;;13.10;5.78;;;;;;;36.92;35.12;100399.28;4935525;29;20127;-66
2021/07/15 11:17:27;;;;;;;13.30;5.88;;;;;;;37.03;35.41;100399.06;4931085;29;20052;-67
2021/07/15 11:20:00;;;;;;;14.07;6.60;;;;;;;37.06;35.41;100400.66;4934372;29;20516;-67
2021/07/15 11:22:35;;;;;;;13.17;6.20;;;;;;;36.94;36.11;100402.75;4941002;29;20051;-67
2021/07/15 11:25:04;;;;;;;16.13;6.28;;;;;;;37.02;36.19;100396.50;4952399;29;20049;-67
2021/07/15 11:27:38;;;;;;;11.35;6.10;;;;;;;37.28;35.18;100407.66;4937919;29;20047;-67
2021/07/15 11:30:09;;;;;;;9.70;5.88;;;;;;;37.29;33.78;100406.59;4952706;29;20473;-67
2021/07/15 11:32:37;;;;;;;14.07;5.95;;;;;;;37.18;34.14;100401.31;4945171;29;20058;-67
2021/07/15 11:35:25;;;;;;;9.82;5.30;;;;;;;37.25;34.04;100402.44;4948367;29;20074;-67
2021/07/15 11:38:08;;;;;;;10.50;5.07;;;;;;;37.43;33.54;100387.63;4931541;29;20382;-67
2021/07/15 11:40:45;;;;;;;18.50;9.88;;;;;;;37.41;33.73;100399.84;4916247;29;20048;-67
2021/07/15 11:43:32;;;;;;;19.95;10.05;;;;;;;37.65;33.44;100393.72;4925858;29;20047;-67
2021/07/15 11:46:25;;;;;;;26.70;15.85;;;;;;;37.71;33.74;100402.22;4944356;29;20393;-66
2021/07/15 11:49:03;;;;;;;16.73;8.20;;;;;;;37.74;33.83;100401.91;4933830;29;20097;-67
2021/07/15 11:51:45;;;;;;;27.17;17.30;;;;;;;37.93;33.32;100388.94;4930326;29;20114;-67
2021/07/15 11:54:19;;;;;;;17.30;10.55;;;;;;;37.99;33.45;100405.72;4932102;29;20054;-67
2021/07/15 11:56:49;;;;;;;14.38;7.63;;;;;;;37.87;33.75;100401.50;4932385;29;20047;-66
2021/07/15 11:59:41;;;;;;;13.57;6.82;;;;;;;37.84;34.16;100397.16;4949798;29;20113;-66
2021/07/15 12:02:37;;;;;;;12.15;6.13;;;;;;;38.06;33.95;100405.97;4912658;29;20053;-66
2021/07/15 12:05:07;;;;;;;13.30;7.00;;;;;;;38.17;33.49;100391.91;4946500;29;20039;-66
2021/07/15 12:07:37;;;;;;;11.45;6.55;;;;;;;38.50;33.04;100376.41;4935967;29;20109;-66
2021/07/15 12:10:11;;;;;;;10.80;5.38;;;;;;;38.58;32.76;100391.13;4916289;29;20044;-66
2021/07/15 12:12:45;;;;;;;13.10;6.40;;;;;;;38.64;32.65;100376.66;4933032;29;20051;-66
2021/07/15 12:15:24;;;;;;;12.50;5.55;;;;;;;38.74;32.56;100381.16;4927552;29;20657;-67
2021/07/15 12:17:54;;;;;;;14.40;5.82;;;;;;;38.66;32.83;100382.84;4920032;29;20047;-67
2021/07/15 12:20:25;;;;;;;11.45;5.63;;;;;;;38.66;33.17;100374.56;4932367;29;20046;-67
2021/07/15 12:22:58;;;;;;;12.48;6.13;;;;;;;38.86;31.76;100371.56;4938643;29;20564;-68
2021/07/15 12:25:27;;;;;;;;;;;;;;;38.29;31.87;100385.94;4931254;29;20035;-67
2021/07/15 12:27:58;;;;;;;8.05;4.60;;;;;;;38.34;31.49;100379.91;4934357;29;20277;-67
2021/07/15 12:30:41;;;;;;;10.93;5.85;;;;;;;38.41;30.70;100383.75;4930393;29;20047;-67
2021/07/15 12:33:10;;;;;;;13.18;6.15;;;;;;;38.48;30.21;100368.28;4939453;29;20048;-67
2021/07/15 12:35:39;;;;;;;14.02;5.70;;;;;;;38.40;30.65;100375.66;4950678;29;20400;-66
2021/07/15 12:38:23;;;;;;;13.32;6.03;;;;;;;38.40;30.64;100376.50;4951713;29;20040;-67
2021/07/15 12:41:03;;;;;;;12.00;5.75;;;;;;;38.19;30.66;100376.94;4955537;28;20093;-67
2021/07/15 12:43:44;;;;;;;12.07;5.55;;;;;;;38.04;30.75;100363.88;4961865;28;20058;-67
2021/07/15 12:46:16;;;;;;;13.32;5.80;;;;;;;37.77;31.40;100368.50;4951166;29;20046;-67
2021/07/15 12:48:50;;;;;;;11.25;5.40;;;;;;;37.68;32.06;100363.94;4951214;29;20047;-67
2021/07/15 12:51:22;;;;;;;15.73;6.50;;;;;;;37.48;32.46;100351.38;4934399;29;20452;-68
2021/07/15 12:53:52;;;;;;;11.75;5.28;;;;;;;37.42;33.00;100357.47;4951490;29;20117;-67
2021/07/15 12:56:23;;;;;;;15.05;5.38;;;;;;;37.42;32.81;100349.22;4944622;28;20067;-68
2021/07/15 12:59:07;;;;;;;14.27;6.20;;;;;;;37.45;32.26;100371.81;4948918;28;20049;-68
2021/07/15 13:01:39;;;;;;;12.32;5.72;;;;;;;37.18;32.84;100376.53;4949352;29;20116;-67
2021/07/15 13:04:11;;;;;;;14.80;5.93;;;;;;;37.21;32.71;100371.59;4952337;28;20122;-68
2021/07/15 13:06:41;;;;;;;22.63;15.27;;;;;;;37.30;32.86;100364.25;4943112;29;20130;-68
2021/07/15 13:09:18;;;;;;;12.18;6.00;;;;;;;37.19;32.78;100362.63;4954726;29;20043;-67
2021/07/15 13:14:33;;;;;;;20.38;11.48;;;;;;;37.24;32.67;100378.66;4953637;28;20047;-68
2021/07/15 13:17:02;;;;;;;22.70;13.88;;;;;;;37.22;32.64;100367.78;4954514;29;20144;-67
2021/07/15 13:19:36;;;;;;;14.68;7.22;;;;;;;37.34;32.62;100371.22;4970472;28;20046;-67
2021/07/15 13:22:10;;;;;;;11.25;5.93;;;;;;;37.42;32.37;100357.47;4973056;28;20039;-67
2021/07/15 13:24:38;;;;;;;13.18;6.30;;;;;;;37.42;31.89;100365.75;4953921;28;20042;-67
2021/07/15 13:27:13;;;;;;;12.93;7.13;;;;;;;37.58;31.64;100357.66;4955146;29;20050;-68
2021/07/15 13:29:42;;;;;;;14.45;7.05;;;;;;;37.57;31.58;100375.22;4954124;29;20143;-67
2021/07/15 13:32:15;;;;;;;13.77;6.43;;;;;;;37.46;31.38;100370.81;4953297;29;20066;-67
2021/07/15 13:34:44;;;;;;;18.37;10.43;;;;;;;37.44;31.77;100374.72;4935410;29;20048;-67
2021/07/15 13:37:13;;;;;;;12.80;7.05;;;;;;;37.59;31.59;100380.56;4936163;29;20064;-68
2021/07/15 13:39:46;;;;;;;14.07;6.05;;;;;;;37.47;31.44;100368.91;4953917;29;20416;-67
2021/07/15 13:42:18;;;;;;;11.38;6.32;;;;;;;37.52;31.63;100374.81;4954346;29;20046;-68
2021/07/15 13:44:54;;;;;;;14.98;8.93;;;;;;;37.73;31.47;100377.25;4954069;29;20040;-68
2021/07/15 13:47:28;;;;;;;14.95;6.70;;;;;;;37.70;31.25;100383.94;4954030;29;20052;-68
2021/07/15 13:49:58;;;;;;;15.57;6.95;;;;;;;37.77;31.52;100379.53;4954395;29;20035;-68
2021/07/15 13:52:29;;;;;;;10.13;6.22;;;;;;;37.90;31.21;100384.59;4953537;29;20131;-68
2021/07/15 13:54:56;;;;;;;14.45;8.18;;;;;;;37.84;31.18;100371.47;4954120;29;20046;-68
2021/07/15 13:57:31;;;;;;;13.50;6.38;;;;;;;37.79;31.27;100384.88;4953504;29;20119;-69
2021/07/15 13:59:58;;;;;;;15.68;7.32;;;;;;;37.61;31.19;100368.38;4933980;29;20108;-67
2021/07/15 14:02:29;;;;;;;11.27;6.07;;;;;;;37.60;31.27;100376.81;4952091;29;20505;-67
2021/07/15 14:05:00;;;;;;;12.50;5.82;;;;;;;37.54;31.40;100366.38;4954019;29;20050;-67
2021/07/15 14:07:29;;;;;;;13.90;6.50;;;;;;;37.38;31.70;100378.97;4953230;29;20513;-68
2021/07/15 14:10:10;;;;;;;13.57;6.35;;;;;;;37.34;31.99;100377.59;4953948;29;20036;-67
2021/07/15 14:12:38;;;;;;;13.30;6.50;;;;;;;37.16;32.79;100378.56;4953402;29;20043;-67
2021/07/15 14:15:14;;;;;;;16.33;6.57;;;;;;;36.97;33.55;100379.53;4953738;28;20039;-68
2021/07/15 14:17:46;;;;;;;16.80;6.75;;;;;;;36.81;34.37;100377.50;4934188;29;20063;-67
2021/07/15 14:20:14;;;;;;;11.02;6.50;;;;;;;36.65;34.96;100377.28;4948938;29;20067;-67
2021/07/15 14:22:42;;;;;;;14.18;7.00;;;;;;;36.70;35.35;100384.06;4953057;29;20047;-67
2021/07/15 14:25:10;;;;;;;11.52;6.78;;;;;;;36.77;35.35;100378.81;4952926;29;20094;-68
2021/07/15 14:27:38;;;;;;;14.60;8.13;;;;;;;36.64;35.29;100381.91;4952109;29;20043;-67
2021/07/15 14:30:06;;;;;;;13.38;6.68;;;;;;;36.74;35.25;100379.13;4943465;28;20482;-68
2021/07/15 14:32:34;;;;;;;11.90;6.68;;;;;;;36.72;34.00;100372.91;4949795;29;20043;-67
2021/07/15 14:35:04;;;;;;;11.93;6.85;;;;;;;36.55;33.50;100379.19;4952384;29;20462;-67
2021/07/15 14:37:31;;;;;;;14.05;6.57;;;;;;;36.36;33.46;100377.41;4951142;29;20113;-68
2021/07/15 14:39:59;;;;;;;15.27;6.57;;;;;;;36.48;33.29;100375.31;4953218;29;20378;-68
2021/07/15 14:42:26;;;;;;;11.65;5.80;;;;;;;36.44;32.93;100374.75;4952347;29;20046;-67
2021/07/15 14:44:57;;;;;;;15.07;6.22;;;;;;;36.24;33.29;100371.22;4956795;28;20055;-68
2021/07/15 14:47:26;;;;;;;9.40;5.78;;;;;;;36.17;33.50;100370.06;4951686;29;20447;-68
2021/07/15 14:49:56;;;;;;;11.10;5.82;;;;;;;36.00;33.86;100372.72;4954907;28;20043;-68
2021/07/15 14:52:27;;;;;;;16.02;6.50;;;;;;;36.15;34.12;100369.34;4934725;29;20062;-68
2021/07/15 14:54:56;;;;;;;10.73;6.43;;;;;;;35.96;34.47;100369.41;4933465;29;20103;-68
2021/07/15 14:57:23;;;;;;;11.90;5.90;;;;;;;35.78;34.68;100361.03;4951378;28;20050;-68
2021/07/15 14:59:53;;;;;;;12.73;6.75;;;;;;;35.76;34.65;100359.47;4951572;28;20134;-68
2021/07/15 15:02:21;;;;;;;17.30;6.70;;;;;;;35.91;34.64;100363.47;4951950;29;20054;-68
2021/07/15 15:04:49;;;;;;;11.07;6.65;;;;;;;35.91;34.88;100357.97;4944910;28;20048;-67
2021/07/15 15:07:16;;;;;;;12.90;6.90;;;;;;;35.76;35.23;100353.97;4959686;28;20049;-68
2021/07/15 15:09:47;;;;;;;11.80;5.80;;;;;;;35.71;35.26;100351.66;4959458;28;20035;-68
2021/07/15 15:17:31;;;;;;;15.27;6.97;;;;;;;35.56;35.87;100364.97;4945169;28;21762;-67
2021/07/15 15:23:00;;;;;;;17.15;6.60;;;;;;;35.26;36.44;100362.34;4968931;23;22986;-68
2021/07/15 15:25:30;;;;;;;11.80;6.07;;;;;;;35.24;36.76;100358.91;4973807;28;20538;-68
2021/07/15 15:27:59;;;;;;;12.52;6.05;;;;;;;35.17;36.77;100358.56;4973992;28;20515;-68
2021/07/15 15:30:27;;;;;;;11.48;6.28;;;;;;;35.03;37.46;100358.13;4990189;28;20132;-68
2021/07/15 15:32:54;;;;;;;12.48;6.53;;;;;;;34.83;37.87;100354.47;4991006;28;20279;-69
2021/07/15 15:35:24;;;;;;;10.50;7.50;;;;;;;34.52;39.21;100350.03;4990417;28;20481;-69
2021/07/15 15:37:52;;;;;;;14.98;6.72;;;;;;;34.49;39.42;100359.41;4991655;28;20133;-69